首页
METAR-TAF:

METAR-TAF

机场 :

帕耶讷, 瑞士

纬度: 46-49N, 经度: 006-57E, 海拔: 490米

当前天气观测

该预报发布于25分钟前的11:20 UTC
风速1节,风向多变
温度 15°C
湿度 82%
气压 1014 hPa
能见度10公里或以上
少量云层高于3000英尺
散云层高于4600英尺
多云层高于6300英尺
小阵雨

METAR: LSMP 011120Z AUTO VRB01KT 9999NDV -SHRA FEW030 SCT046 BKN063 15/12 Q1014 RMK

时间: 13:45 (11:45 UTC)


TAF: 丢失

超过4000个机场的气象观测和天气预报(METAR&TAF报告)。

可查询的气象台以黄色和红色小点在地图上表示。

将鼠标移到小点上方,可查看气象台名称。

然后点击查看天气观测和预报。

如需切换地图:点击带黑十字的绿色按钮放大地图;点击带横线的绿色按钮缩小地图;或者点击绿色箭头查看邻近地区的地图。


METAR-TAF: